sensor_id;sensor_type;location;lat;lon;timestamp;temperature;humidity
3380;DHT22;1703;51.964;7.642;2024-02-04T00:02:01;10.60;99.90
3380;DHT22;1703;51.964;7.642;2024-02-04T00:04:29;10.70;99.90
3380;DHT22;1703;51.964;7.642;2024-02-04T00:06:58;10.70;99.90
3380;DHT22;1703;51.964;7.642;2024-02-04T00:09:24;10.70;99.90
3380;DHT22;1703;51.964;7.642;2024-02-04T00:11:53;10.70;99.90
3380;DHT22;1703;51.964;7.642;2024-02-04T00:14:21;10.70;99.90
3380;DHT22;1703;51.964;7.642;2024-02-04T00:16:48;10.70;99.90
3380;DHT22;1703;51.964;7.642;2024-02-04T00:19:15;10.70;99.90
3380;DHT22;1703;51.964;7.642;2024-02-04T00:21:41;10.70;99.90
3380;DHT22;1703;51.964;7.642;2024-02-04T00:24:08;10.70;99.90
3380;DHT22;1703;51.964;7.642;2024-02-04T00:26:35;10.80;99.90
3380;DHT22;1703;51.964;7.642;2024-02-04T00:29:02;10.70;99.90
3380;DHT22;1703;51.964;7.642;2024-02-04T00:31:30;10.70;99.90
3380;DHT22;1703;51.964;7.642;2024-02-04T00:33:57;10.70;99.90
3380;DHT22;1703;51.964;7.642;2024-02-04T00:36:24;10.70;99.90
3380;DHT22;1703;51.964;7.642;2024-02-04T00:38:51;10.70;99.90
3380;DHT22;1703;51.964;7.642;2024-02-04T00:41:17;10.70;99.90
3380;DHT22;1703;51.964;7.642;2024-02-04T00:43:44;10.70;99.90
3380;DHT22;1703;51.964;7.642;2024-02-04T00:46:11;10.70;99.90
3380;DHT22;1703;51.964;7.642;2024-02-04T00:48:39;10.60;99.90
3380;DHT22;1703;51.964;7.642;2024-02-04T00:51:07;10.70;99.90
3380;DHT22;1703;51.964;7.642;2024-02-04T00:53:34;10.60;99.90
3380;DHT22;1703;51.964;7.642;2024-02-04T00:56:01;10.60;99.90
3380;DHT22;1703;51.964;7.642;2024-02-04T00:58:28;10.60;99.90
3380;DHT22;1703;51.964;7.642;2024-02-04T01:00:55;10.60;99.90
3380;DHT22;1703;51.964;7.642;2024-02-04T01:03:21;10.60;99.90
3380;DHT22;1703;51.964;7.642;2024-02-04T01:05:50;10.60;99.90
3380;DHT22;1703;51.964;7.642;2024-02-04T01:08:17;10.60;99.90
3380;DHT22;1703;51.964;7.642;2024-02-04T01:10:44;10.50;99.90
3380;DHT22;1703;51.964;7.642;2024-02-04T01:13:12;10.50;99.90
3380;DHT22;1703;51.964;7.642;2024-02-04T01:15:39;10.60;99.90
3380;DHT22;1703;51.964;7.642;2024-02-04T01:18:06;10.50;99.90
3380;DHT22;1703;51.964;7.642;2024-02-04T01:20:32;10.50;99.90
3380;DHT22;1703;51.964;7.642;2024-02-04T01:23:00;10.50;99.90
3380;DHT22;1703;51.964;7.642;2024-02-04T01:25:27;10.50;99.90
3380;DHT22;1703;51.964;7.642;2024-02-04T01:27:54;10.60;99.90
3380;DHT22;1703;51.964;7.642;2024-02-04T01:30:21;10.50;99.90
3380;DHT22;1703;51.964;7.642;2024-02-04T01:32:48;10.50;99.90
3380;DHT22;1703;51.964;7.642;2024-02-04T01:35:15;10.50;99.90
3380;DHT22;1703;51.964;7.642;2024-02-04T01:37:42;10.50;99.90
3380;DHT22;1703;51.964;7.642;2024-02-04T01:40:11;10.50;99.90
3380;DHT22;1703;51.964;7.642;2024-02-04T01:42:39;10.50;99.90
3380;DHT22;1703;51.964;7.642;2024-02-04T01:45:06;10.60;99.90
3380;DHT22;1703;51.964;7.642;2024-02-04T01:47:34;10.60;99.90
3380;DHT22;1703;51.964;7.642;2024-02-04T01:50:01;10.60;99.90
3380;DHT22;1703;51.964;7.642;2024-02-04T01:52:30;10.60;99.90
3380;DHT22;1703;51.964;7.642;2024-02-04T01:54:59;10.60;99.90
3380;DHT22;1703;51.964;7.642;2024-02-04T01:57:28;10.60;99.90
3380;DHT22;1703;51.964;7.642;2024-02-04T01:59:55;10.60;99.90
3380;DHT22;1703;51.964;7.642;2024-02-04T02:02:23;10.60;99.90
3380;DHT22;1703;51.964;7.642;2024-02-04T02:04:51;10.60;99.90
3380;DHT22;1703;51.964;7.642;2024-02-04T02:07:18;10.60;99.90
3380;DHT22;1703;51.964;7.642;2024-02-04T02:09:46;10.60;99.90
3380;DHT22;1703;51.964;7.642;2024-02-04T02:12:16;10.60;99.90
3380;DHT22;1703;51.964;7.642;2024-02-04T02:14:50;10.60;99.90
3380;DHT22;1703;51.964;7.642;2024-02-04T02:17:27;10.60;99.90
3380;DHT22;1703;51.964;7.642;2024-02-04T02:20:01;10.70;99.90
3380;DHT22;1703;51.964;7.642;2024-02-04T02:22:38;10.60;99.90
3380;DHT22;1703;51.964;7.642;2024-02-04T02:25:07;10.60;99.90
3380;DHT22;1703;51.964;7.642;2024-02-04T02:27:34;10.60;99.90
3380;DHT22;1703;51.964;7.642;2024-02-04T02:30:01;10.60;99.90
3380;DHT22;1703;51.964;7.642;2024-02-04T02:32:28;10.60;99.90
3380;DHT22;1703;51.964;7.642;2024-02-04T02:34:55;10.50;99.90
3380;DHT22;1703;51.964;7.642;2024-02-04T02:37:27;10.50;99.90
3380;DHT22;1703;51.964;7.642;2024-02-04T02:39:59;10.50;99.90
3380;DHT22;1703;51.964;7.642;2024-02-04T02:42:29;10.60;99.90
3380;DHT22;1703;51.964;7.642;2024-02-04T02:44:57;10.50;99.90
3380;DHT22;1703;51.964;7.642;2024-02-04T02:47:24;10.50;99.90
3380;DHT22;1703;51.964;7.642;2024-02-04T02:49:54;10.50;99.90
3380;DHT22;1703;51.964;7.642;2024-02-04T02:52:21;10.50;99.90
3380;DHT22;1703;51.964;7.642;2024-02-04T02:54:48;10.50;99.90
3380;DHT22;1703;51.964;7.642;2024-02-04T02:57:15;10.60;99.90
3380;DHT22;1703;51.964;7.642;2024-02-04T02:59:44;10.50;99.90
3380;DHT22;1703;51.964;7.642;2024-02-04T03:02:10;10.50;99.90
3380;DHT22;1703;51.964;7.642;2024-02-04T03:04:39;10.40;99.90
3380;DHT22;1703;51.964;7.642;2024-02-04T03:07:06;10.30;99.90
3380;DHT22;1703;51.964;7.642;2024-02-04T03:09:33;10.30;99.90
3380;DHT22;1703;51.964;7.642;2024-02-04T03:12:00;10.40;99.90
3380;DHT22;1703;51.964;7.642;2024-02-04T03:14:27;10.40;99.90
3380;DHT22;1703;51.964;7.642;2024-02-04T03:16:55;10.40;99.90
3380;DHT22;1703;51.964;7.642;2024-02-04T03:19:22;10.30;99.90
3380;DHT22;1703;51.964;7.642;2024-02-04T03:21:48;10.30;99.90
3380;DHT22;1703;51.964;7.642;2024-02-04T03:24:16;10.30;99.90
3380;DHT22;1703;51.964;7.642;2024-02-04T03:26:42;10.30;99.90
3380;DHT22;1703;51.964;7.642;2024-02-04T03:29:09;10.40;99.90
3380;DHT22;1703;51.964;7.642;2024-02-04T03:31:36;10.40;99.90
3380;DHT22;1703;51.964;7.642;2024-02-04T03:34:04;10.50;99.90
3380;DHT22;1703;51.964;7.642;2024-02-04T03:36:31;10.40;99.90
3380;DHT22;1703;51.964;7.642;2024-02-04T03:38:58;10.40;99.90
3380;DHT22;1703;51.964;7.642;2024-02-04T03:41:25;10.40;99.90
3380;DHT22;1703;51.964;7.642;2024-02-04T03:43:52;10.40;99.90
3380;DHT22;1703;51.964;7.642;2024-02-04T03:46:20;10.40;99.90
3380;DHT22;1703;51.964;7.642;2024-02-04T03:48:48;10.40;99.90
3380;DHT22;1703;51.964;7.642;2024-02-04T03:51:17;10.40;99.90
3380;DHT22;1703;51.964;7.642;2024-02-04T03:53:45;10.40;99.90
3380;DHT22;1703;51.964;7.642;2024-02-04T03:56:12;10.40;99.90
3380;DHT22;1703;51.964;7.642;2024-02-04T03:58:38;10.40;99.90
3380;DHT22;1703;51.964;7.642;2024-02-04T04:01:09;10.40;99.90
3380;DHT22;1703;51.964;7.642;2024-02-04T04:03:36;10.40;99.90
3380;DHT22;1703;51.964;7.642;2024-02-04T04:06:02;10.40;99.90
3380;DHT22;1703;51.964;7.642;2024-02-04T04:08:31;10.40;99.90
3380;DHT22;1703;51.964;7.642;2024-02-04T04:10:57;10.50;99.90
3380;DHT22;1703;51.964;7.642;2024-02-04T04:13:24;10.50;99.90
3380;DHT22;1703;51.964;7.642;2024-02-04T04:15:51;10.50;99.90
3380;DHT22;1703;51.964;7.642;2024-02-04T04:18:18;10.50;99.90
3380;DHT22;1703;51.964;7.642;2024-02-04T04:20:45;10.60;99.90
3380;DHT22;1703;51.964;7.642;2024-02-04T04:23:12;10.50;99.90
3380;DHT22;1703;51.964;7.642;2024-02-04T04:25:40;10.50;99.90
3380;DHT22;1703;51.964;7.642;2024-02-04T04:28:07;10.50;99.90
3380;DHT22;1703;51.964;7.642;2024-02-04T04:30:33;10.50;99.90
3380;DHT22;1703;51.964;7.642;2024-02-04T04:33:00;10.40;99.90
3380;DHT22;1703;51.964;7.642;2024-02-04T04:35:27;10.50;99.90
3380;DHT22;1703;51.964;7.642;2024-02-04T04:37:54;10.50;99.90
3380;DHT22;1703;51.964;7.642;2024-02-04T04:40:20;10.50;99.90
3380;DHT22;1703;51.964;7.642;2024-02-04T04:42:48;10.50;99.90
3380;DHT22;1703;51.964;7.642;2024-02-04T04:45:15;10.50;99.90
3380;DHT22;1703;51.964;7.642;2024-02-04T04:47:42;10.50;99.90
3380;DHT22;1703;51.964;7.642;2024-02-04T04:50:09;10.50;99.90
3380;DHT22;1703;51.964;7.642;2024-02-04T04:52:36;10.50;99.90
3380;DHT22;1703;51.964;7.642;2024-02-04T04:55:03;10.50;99.90
3380;DHT22;1703;51.964;7.642;2024-02-04T04:57:30;10.50;99.90
3380;DHT22;1703;51.964;7.642;2024-02-04T04:59:58;10.40;99.90
3380;DHT22;1703;51.964;7.642;2024-02-04T05:02:29;10.40;99.90
3380;DHT22;1703;51.964;7.642;2024-02-04T05:04:56;10.50;99.90
3380;DHT22;1703;51.964;7.642;2024-02-04T05:07:22;10.40;99.90
3380;DHT22;1703;51.964;7.642;2024-02-04T05:09:49;10.50;99.90
3380;DHT22;1703;51.964;7.642;2024-02-04T05:12:17;10.40;99.90
3380;DHT22;1703;51.964;7.642;2024-02-04T05:14:44;10.40;99.90
3380;DHT22;1703;51.964;7.642;2024-02-04T05:17:12;10.50;99.90
3380;DHT22;1703;51.964;7.642;2024-02-04T05:19:40;10.50;99.90
3380;DHT22;1703;51.964;7.642;2024-02-04T05:22:07;10.40;99.90
3380;DHT22;1703;51.964;7.642;2024-02-04T05:24:34;10.40;99.90
3380;DHT22;1703;51.964;7.642;2024-02-04T05:27:01;10.50;99.90
3380;DHT22;1703;51.964;7.642;2024-02-04T05:29:27;10.50;99.90
3380;DHT22;1703;51.964;7.642;2024-02-04T05:31:54;10.50;99.90
3380;DHT22;1703;51.964;7.642;2024-02-04T05:34:22;10.60;99.90
3380;DHT22;1703;51.964;7.642;2024-02-04T05:36:49;10.50;99.90
3380;DHT22;1703;51.964;7.642;2024-02-04T05:39:16;10.50;99.90
3380;DHT22;1703;51.964;7.642;2024-02-04T05:41:43;10.50;99.90
3380;DHT22;1703;51.964;7.642;2024-02-04T05:44:10;10.50;99.90
3380;DHT22;1703;51.964;7.642;2024-02-04T05:46:37;10.50;99.90
3380;DHT22;1703;51.964;7.642;2024-02-04T05:49:04;10.60;99.90
3380;DHT22;1703;51.964;7.642;2024-02-04T05:51:37;10.50;99.90
3380;DHT22;1703;51.964;7.642;2024-02-04T05:54:03;10.50;99.90
3380;DHT22;1703;51.964;7.642;2024-02-04T05:56:30;10.50;99.90
3380;DHT22;1703;51.964;7.642;2024-02-04T05:58:57;10.50;99.90
3380;DHT22;1703;51.964;7.642;2024-02-04T06:01:24;10.50;99.90
3380;DHT22;1703;51.964;7.642;2024-02-04T06:03:51;10.50;99.90
3380;DHT22;1703;51.964;7.642;2024-02-04T06:06:18;10.50;99.90
3380;DHT22;1703;51.964;7.642;2024-02-04T06:08:47;10.50;99.90
3380;DHT22;1703;51.964;7.642;2024-02-04T06:11:15;10.50;99.90
3380;DHT22;1703;51.964;7.642;2024-02-04T06:13:43;10.50;99.90
3380;DHT22;1703;51.964;7.642;2024-02-04T06:16:10;10.50;99.90
3380;DHT22;1703;51.964;7.642;2024-02-04T06:18:37;10.50;99.90
3380;DHT22;1703;51.964;7.642;2024-02-04T06:21:04;10.40;99.90
3380;DHT22;1703;51.964;7.642;2024-02-04T06:23:31;10.50;99.90
3380;DHT22;1703;51.964;7.642;2024-02-04T06:26:00;10.50;99.90
3380;DHT22;1703;51.964;7.642;2024-02-04T06:28:27;10.50;99.90
3380;DHT22;1703;51.964;7.642;2024-02-04T06:30:53;10.50;99.90
3380;DHT22;1703;51.964;7.642;2024-02-04T06:33:20;10.40;99.90
3380;DHT22;1703;51.964;7.642;2024-02-04T06:35:48;10.40;99.90
3380;DHT22;1703;51.964;7.642;2024-02-04T06:38:15;10.40;99.90
3380;DHT22;1703;51.964;7.642;2024-02-04T06:40:42;10.40;99.90
3380;DHT22;1703;51.964;7.642;2024-02-04T06:43:10;10.40;99.90
3380;DHT22;1703;51.964;7.642;2024-02-04T06:45:36;10.40;99.90
3380;DHT22;1703;51.964;7.642;2024-02-04T06:48:04;10.30;99.90
3380;DHT22;1703;51.964;7.642;2024-02-04T06:50:31;10.30;99.90
3380;DHT22;1703;51.964;7.642;2024-02-04T06:52:58;10.20;99.90
3380;DHT22;1703;51.964;7.642;2024-02-04T06:55:24;10.10;99.90
3380;DHT22;1703;51.964;7.642;2024-02-04T06:57:51;10.20;99.90
3380;DHT22;1703;51.964;7.642;2024-02-04T07:00:20;10.10;99.90
3380;DHT22;1703;51.964;7.642;2024-02-04T07:02:47;10.00;99.90
3380;DHT22;1703;51.964;7.642;2024-02-04T07:05:14;10.00;99.90
3380;DHT22;1703;51.964;7.642;2024-02-04T07:07:41;10.00;99.90
3380;DHT22;1703;51.964;7.642;2024-02-04T07:10:08;10.00;99.90
3380;DHT22;1703;51.964;7.642;2024-02-04T07:12:35;10.00;99.90
3380;DHT22;1703;51.964;7.642;2024-02-04T07:15:02;10.00;99.90
3380;DHT22;1703;51.964;7.642;2024-02-04T07:17:30;9.90;99.90
3380;DHT22;1703;51.964;7.642;2024-02-04T07:19:57;9.90;99.90
3380;DHT22;1703;51.964;7.642;2024-02-04T07:22:24;9.90;99.90
3380;DHT22;1703;51.964;7.642;2024-02-04T07:24:51;9.90;99.90
3380;DHT22;1703;51.964;7.642;2024-02-04T07:27:18;9.90;99.90
3380;DHT22;1703;51.964;7.642;2024-02-04T07:29:44;9.90;99.90
3380;DHT22;1703;51.964;7.642;2024-02-04T07:32:12;9.90;99.90
3380;DHT22;1703;51.964;7.642;2024-02-04T07:34:41;9.90;99.90
3380;DHT22;1703;51.964;7.642;2024-02-04T07:37:08;9.90;99.90
3380;DHT22;1703;51.964;7.642;2024-02-04T07:39:35;9.90;99.90
3380;DHT22;1703;51.964;7.642;2024-02-04T07:42:02;9.90;99.90
3380;DHT22;1703;51.964;7.642;2024-02-04T07:44:29;9.90;99.90
3380;DHT22;1703;51.964;7.642;2024-02-04T07:46:55;9.90;99.90
3380;DHT22;1703;51.964;7.642;2024-02-04T07:49:22;10.10;99.90
3380;DHT22;1703;51.964;7.642;2024-02-04T07:51:50;10.20;99.90
3380;DHT22;1703;51.964;7.642;2024-02-04T07:54:17;10.20;99.90
3380;DHT22;1703;51.964;7.642;2024-02-04T07:56:44;10.20;99.90
3380;DHT22;1703;51.964;7.642;2024-02-04T07:59:11;10.30;99.90
3380;DHT22;1703;51.964;7.642;2024-02-04T08:01:37;10.30;99.90
3380;DHT22;1703;51.964;7.642;2024-02-04T08:04:04;10.30;99.90
3380;DHT22;1703;51.964;7.642;2024-02-04T08:06:34;10.20;99.90
3380;DHT22;1703;51.964;7.642;2024-02-04T08:09:02;10.10;99.90
3380;DHT22;1703;51.964;7.642;2024-02-04T08:11:29;10.10;99.90
3380;DHT22;1703;51.964;7.642;2024-02-04T08:13:56;10.10;99.90
3380;DHT22;1703;51.964;7.642;2024-02-04T08:16:22;10.00;99.90
3380;DHT22;1703;51.964;7.642;2024-02-04T08:18:49;10.00;99.90
3380;DHT22;1703;51.964;7.642;2024-02-04T08:21:16;9.90;99.90
3380;DHT22;1703;51.964;7.642;2024-02-04T08:23:43;10.00;99.90
3380;DHT22;1703;51.964;7.642;2024-02-04T08:26:12;10.00;99.90
3380;DHT22;1703;51.964;7.642;2024-02-04T08:28:38;10.00;99.90
3380;DHT22;1703;51.964;7.642;2024-02-04T08:31:05;9.90;99.90
3380;DHT22;1703;51.964;7.642;2024-02-04T08:33:32;9.90;99.90
3380;DHT22;1703;51.964;7.642;2024-02-04T08:35:59;9.90;99.90
3380;DHT22;1703;51.964;7.642;2024-02-04T08:38:26;10.00;99.90
3380;DHT22;1703;51.964;7.642;2024-02-04T08:40:52;10.00;99.90
3380;DHT22;1703;51.964;7.642;2024-02-04T08:43:20;10.00;99.90
3380;DHT22;1703;51.964;7.642;2024-02-04T08:45:47;9.90;99.90
3380;DHT22;1703;51.964;7.642;2024-02-04T08:48:14;9.80;99.90
3380;DHT22;1703;51.964;7.642;2024-02-04T08:50:41;9.80;99.90
3380;DHT22;1703;51.964;7.642;2024-02-04T08:53:07;9.90;99.90
3380;DHT22;1703;51.964;7.642;2024-02-04T08:55:34;9.90;99.90
3380;DHT22;1703;51.964;7.642;2024-02-04T08:58:01;9.90;99.90
3380;DHT22;1703;51.964;7.642;2024-02-04T09:00:29;9.90;99.90
3380;DHT22;1703;51.964;7.642;2024-02-04T09:02:56;9.90;99.90
3380;DHT22;1703;51.964;7.642;2024-02-04T09:05:22;9.90;99.90
3380;DHT22;1703;51.964;7.642;2024-02-04T09:07:49;9.90;99.90
3380;DHT22;1703;51.964;7.642;2024-02-04T09:10:16;9.90;99.90
3380;DHT22;1703;51.964;7.642;2024-02-04T09:12:43;9.80;99.90
3380;DHT22;1703;51.964;7.642;2024-02-04T09:15:10;9.80;99.90
3380;DHT22;1703;51.964;7.642;2024-02-04T09:17:38;9.80;99.90
3380;DHT22;1703;51.964;7.642;2024-02-04T09:20:06;9.80;99.90
3380;DHT22;1703;51.964;7.642;2024-02-04T09:22:33;9.80;99.90
3380;DHT22;1703;51.964;7.642;2024-02-04T09:25:00;9.80;99.90
3380;DHT22;1703;51.964;7.642;2024-02-04T09:27:27;9.80;99.90
3380;DHT22;1703;51.964;7.642;2024-02-04T09:29:54;9.80;99.90
3380;DHT22;1703;51.964;7.642;2024-02-04T09:32:21;9.80;99.90
3380;DHT22;1703;51.964;7.642;2024-02-04T09:34:49;9.90;99.90
3380;DHT22;1703;51.964;7.642;2024-02-04T09:37:16;9.90;99.90
3380;DHT22;1703;51.964;7.642;2024-02-04T09:39:43;9.90;99.90
3380;DHT22;1703;51.964;7.642;2024-02-04T09:42:10;9.90;99.90
3380;DHT22;1703;51.964;7.642;2024-02-04T09:44:43;9.90;99.90
3380;DHT22;1703;51.964;7.642;2024-02-04T09:47:11;10.00;99.90
3380;DHT22;1703;51.964;7.642;2024-02-04T09:49:38;10.10;99.90
3380;DHT22;1703;51.964;7.642;2024-02-04T09:52:08;10.00;99.90
3380;DHT22;1703;51.964;7.642;2024-02-04T09:54:45;10.10;99.90
3380;DHT22;1703;51.964;7.642;2024-02-04T09:57:12;10.10;99.90
3380;DHT22;1703;51.964;7.642;2024-02-04T09:59:39;10.20;99.90
3380;DHT22;1703;51.964;7.642;2024-02-04T10:02:06;10.10;99.90
3380;DHT22;1703;51.964;7.642;2024-02-04T10:04:33;10.20;99.90
3380;DHT22;1703;51.964;7.642;2024-02-04T10:07:01;10.30;99.90
3380;DHT22;1703;51.964;7.642;2024-02-04T10:09:29;10.30;99.90
3380;DHT22;1703;51.964;7.642;2024-02-04T10:11:57;10.30;99.90
3380;DHT22;1703;51.964;7.642;2024-02-04T10:14:23;10.30;99.90
3380;DHT22;1703;51.964;7.642;2024-02-04T10:16:50;10.30;99.90
3380;DHT22;1703;51.964;7.642;2024-02-04T10:19:17;10.40;99.90
3380;DHT22;1703;51.964;7.642;2024-02-04T10:21:44;10.50;99.90
3380;DHT22;1703;51.964;7.642;2024-02-04T10:24:11;10.50;99.90
3380;DHT22;1703;51.964;7.642;2024-02-04T10:26:39;10.60;99.90
3380;DHT22;1703;51.964;7.642;2024-02-04T10:29:08;10.60;99.90
3380;DHT22;1703;51.964;7.642;2024-02-04T10:31:35;10.50;99.90
3380;DHT22;1703;51.964;7.642;2024-02-04T10:34:02;10.50;99.90
3380;DHT22;1703;51.964;7.642;2024-02-04T10:36:30;10.60;99.90
3380;DHT22;1703;51.964;7.642;2024-02-04T10:38:57;10.60;99.90
3380;DHT22;1703;51.964;7.642;2024-02-04T10:41:25;10.60;99.90
3380;DHT22;1703;51.964;7.642;2024-02-04T10:43:54;10.70;99.90
3380;DHT22;1703;51.964;7.642;2024-02-04T10:46:23;10.70;99.90
3380;DHT22;1703;51.964;7.642;2024-02-04T10:48:55;10.70;99.90
3380;DHT22;1703;51.964;7.642;2024-02-04T10:51:24;10.70;99.90
3380;DHT22;1703;51.964;7.642;2024-02-04T10:53:54;10.80;99.90
3380;DHT22;1703;51.964;7.642;2024-02-04T10:56:24;10.80;99.90
3380;DHT22;1703;51.964;7.642;2024-02-04T10:58:54;10.60;99.90
3380;DHT22;1703;51.964;7.642;2024-02-04T11:01:22;10.60;99.90
3380;DHT22;1703;51.964;7.642;2024-02-04T11:03:50;10.60;99.90
3380;DHT22;1703;51.964;7.642;2024-02-04T11:06:18;10.60;99.90
3380;DHT22;1703;51.964;7.642;2024-02-04T11:08:47;10.70;99.90
3380;DHT22;1703;51.964;7.642;2024-02-04T11:11:13;10.70;99.90
3380;DHT22;1703;51.964;7.642;2024-02-04T11:13:43;10.70;99.90
3380;DHT22;1703;51.964;7.642;2024-02-04T11:16:20;10.70;99.90
3380;DHT22;1703;51.964;7.642;2024-02-04T11:19:03;10.70;99.90
3380;DHT22;1703;51.964;7.642;2024-02-04T11:21:47;10.60;99.90
3380;DHT22;1703;51.964;7.642;2024-02-04T11:24:28;10.60;99.90
3380;DHT22;1703;51.964;7.642;2024-02-04T11:26:58;10.60;99.90
3380;DHT22;1703;51.964;7.642;2024-02-04T11:29:26;10.60;99.90
3380;DHT22;1703;51.964;7.642;2024-02-04T11:31:55;10.70;99.90
3380;DHT22;1703;51.964;7.642;2024-02-04T11:34:23;10.70;99.90
3380;DHT22;1703;51.964;7.642;2024-02-04T11:36:50;10.70;99.90
3380;DHT22;1703;51.964;7.642;2024-02-04T11:39:18;10.70;99.90
3380;DHT22;1703;51.964;7.642;2024-02-04T11:41:47;10.70;99.90
3380;DHT22;1703;51.964;7.642;2024-02-04T11:44:20;10.80;99.90
3380;DHT22;1703;51.964;7.642;2024-02-04T11:46:47;10.80;99.90
3380;DHT22;1703;51.964;7.642;2024-02-04T11:49:16;10.80;99.90
3380;DHT22;1703;51.964;7.642;2024-02-04T11:51:45;10.80;99.90
3380;DHT22;1703;51.964;7.642;2024-02-04T11:54:15;10.80;99.90
3380;DHT22;1703;51.964;7.642;2024-02-04T11:56:42;10.80;99.90
3380;DHT22;1703;51.964;7.642;2024-02-04T11:59:10;10.90;99.90
3380;DHT22;1703;51.964;7.642;2024-02-04T12:01:38;10.80;99.90
3380;DHT22;1703;51.964;7.642;2024-02-04T12:04:12;10.90;99.90
3380;DHT22;1703;51.964;7.642;2024-02-04T12:06:42;10.90;99.90
3380;DHT22;1703;51.964;7.642;2024-02-04T12:09:10;10.90;99.90
3380;DHT22;1703;51.964;7.642;2024-02-04T12:11:38;11.00;99.90
3380;DHT22;1703;51.964;7.642;2024-02-04T12:14:07;11.00;99.90
3380;DHT22;1703;51.964;7.642;2024-02-04T12:16:34;11.00;99.90
3380;DHT22;1703;51.964;7.642;2024-02-04T12:19:01;11.00;99.90
3380;DHT22;1703;51.964;7.642;2024-02-04T12:21:30;11.00;99.90
3380;DHT22;1703;51.964;7.642;2024-02-04T12:23:58;10.90;99.90
3380;DHT22;1703;51.964;7.642;2024-02-04T12:26:25;10.90;99.90
3380;DHT22;1703;51.964;7.642;2024-02-04T12:28:52;10.90;99.90
3380;DHT22;1703;51.964;7.642;2024-02-04T12:31:21;10.90;99.90
3380;DHT22;1703;51.964;7.642;2024-02-04T12:33:52;10.80;99.90
3380;DHT22;1703;51.964;7.642;2024-02-04T12:36:20;10.70;99.90
3380;DHT22;1703;51.964;7.642;2024-02-04T12:38:52;10.60;99.90
3380;DHT22;1703;51.964;7.642;2024-02-04T12:41:20;10.60;99.90
3380;DHT22;1703;51.964;7.642;2024-02-04T12:43:51;10.50;99.90
3380;DHT22;1703;51.964;7.642;2024-02-04T12:46:18;10.50;99.90
3380;DHT22;1703;51.964;7.642;2024-02-04T12:48:50;10.50;99.90
3380;DHT22;1703;51.964;7.642;2024-02-04T12:51:23;10.50;99.90
3380;DHT22;1703;51.964;7.642;2024-02-04T12:54:01;10.50;99.90
3380;DHT22;1703;51.964;7.642;2024-02-04T12:56:33;10.50;99.90
3380;DHT22;1703;51.964;7.642;2024-02-04T12:59:05;10.40;99.90
3380;DHT22;1703;51.964;7.642;2024-02-04T13:01:32;10.50;99.90
3380;DHT22;1703;51.964;7.642;2024-02-04T13:03:59;10.50;99.90
3380;DHT22;1703;51.964;7.642;2024-02-04T13:06:26;10.50;99.90
3380;DHT22;1703;51.964;7.642;2024-02-04T13:08:54;10.50;99.90
3380;DHT22;1703;51.964;7.642;2024-02-04T13:11:23;10.50;99.90
3380;DHT22;1703;51.964;7.642;2024-02-04T13:13:51;10.50;99.90
3380;DHT22;1703;51.964;7.642;2024-02-04T13:16:19;10.60;99.90
3380;DHT22;1703;51.964;7.642;2024-02-04T13:18:52;10.60;99.90
3380;DHT22;1703;51.964;7.642;2024-02-04T13:21:19;10.60;99.90
3380;DHT22;1703;51.964;7.642;2024-02-04T13:23:47;10.60;99.90
3380;DHT22;1703;51.964;7.642;2024-02-04T13:26:15;10.60;99.90
3380;DHT22;1703;51.964;7.642;2024-02-04T13:28:42;10.60;99.90
3380;DHT22;1703;51.964;7.642;2024-02-04T13:31:10;10.60;99.90
3380;DHT22;1703;51.964;7.642;2024-02-04T13:33:38;10.60;99.90
3380;DHT22;1703;51.964;7.642;2024-02-04T13:36:06;10.70;99.90
3380;DHT22;1703;51.964;7.642;2024-02-04T13:38:33;10.80;99.90
3380;DHT22;1703;51.964;7.642;2024-02-04T13:41:00;10.80;99.90
3380;DHT22;1703;51.964;7.642;2024-02-04T13:43:27;10.80;99.90
3380;DHT22;1703;51.964;7.642;2024-02-04T13:45:53;10.80;99.90
3380;DHT22;1703;51.964;7.642;2024-02-04T13:48:22;10.90;99.90
3380;DHT22;1703;51.964;7.642;2024-02-04T13:50:51;10.80;99.90
3380;DHT22;1703;51.964;7.642;2024-02-04T13:53:19;10.80;99.90
3380;DHT22;1703;51.964;7.642;2024-02-04T13:55:46;10.80;99.90
3380;DHT22;1703;51.964;7.642;2024-02-04T13:58:13;10.80;99.90
3380;DHT22;1703;51.964;7.642;2024-02-04T14:00:41;10.70;99.90
3380;DHT22;1703;51.964;7.642;2024-02-04T14:03:08;10.70;99.90
3380;DHT22;1703;51.964;7.642;2024-02-04T14:05:36;10.70;99.90
3380;DHT22;1703;51.964;7.642;2024-02-04T14:08:03;10.70;99.90
3380;DHT22;1703;51.964;7.642;2024-02-04T14:10:31;10.70;99.90
3380;DHT22;1703;51.964;7.642;2024-02-04T14:12:58;10.80;99.90
3380;DHT22;1703;51.964;7.642;2024-02-04T14:15:24;10.80;99.90
3380;DHT22;1703;51.964;7.642;2024-02-04T14:17:51;10.70;99.90
3380;DHT22;1703;51.964;7.642;2024-02-04T14:20:18;10.80;99.90
3380;DHT22;1703;51.964;7.642;2024-02-04T14:22:46;10.80;99.90
3380;DHT22;1703;51.964;7.642;2024-02-04T14:25:13;10.70;99.90
3380;DHT22;1703;51.964;7.642;2024-02-04T14:27:40;10.60;99.90
3380;DHT22;1703;51.964;7.642;2024-02-04T14:30:07;10.60;99.90
3380;DHT22;1703;51.964;7.642;2024-02-04T14:32:34;10.50;99.90
3380;DHT22;1703;51.964;7.642;2024-02-04T14:35:01;10.50;99.90
3380;DHT22;1703;51.964;7.642;2024-02-04T14:37:30;10.50;99.90
3380;DHT22;1703;51.964;7.642;2024-02-04T14:39:59;10.50;99.90
3380;DHT22;1703;51.964;7.642;2024-02-04T14:42:26;10.40;99.90
3380;DHT22;1703;51.964;7.642;2024-02-04T14:44:53;10.40;99.90
3380;DHT22;1703;51.964;7.642;2024-02-04T14:47:20;10.40;99.90
3380;DHT22;1703;51.964;7.642;2024-02-04T14:49:47;10.40;99.90
3380;DHT22;1703;51.964;7.642;2024-02-04T14:52:14;10.30;99.90
3380;DHT22;1703;51.964;7.642;2024-02-04T14:54:43;10.30;99.90
3380;DHT22;1703;51.964;7.642;2024-02-04T14:57:11;10.40;99.90
3380;DHT22;1703;51.964;7.642;2024-02-04T14:59:38;10.40;99.90
3380;DHT22;1703;51.964;7.642;2024-02-04T15:02:06;10.40;99.90
3380;DHT22;1703;51.964;7.642;2024-02-04T15:04:33;10.40;99.90
3380;DHT22;1703;51.964;7.642;2024-02-04T15:07:00;10.40;99.90
3380;DHT22;1703;51.964;7.642;2024-02-04T15:09:30;10.40;99.90
3380;DHT22;1703;51.964;7.642;2024-02-04T15:11:57;10.40;99.90
3380;DHT22;1703;51.964;7.642;2024-02-04T15:14:26;10.40;99.90
3380;DHT22;1703;51.964;7.642;2024-02-04T15:16:54;10.40;99.90
3380;DHT22;1703;51.964;7.642;2024-02-04T15:19:22;10.40;99.90
3380;DHT22;1703;51.964;7.642;2024-02-04T15:21:51;10.40;99.90
3380;DHT22;1703;51.964;7.642;2024-02-04T15:24:19;10.50;99.90
3380;DHT22;1703;51.964;7.642;2024-02-04T15:26:48;10.50;99.90
3380;DHT22;1703;51.964;7.642;2024-02-04T15:29:15;10.50;99.90
3380;DHT22;1703;51.964;7.642;2024-02-04T15:31:44;10.50;99.90
3380;DHT22;1703;51.964;7.642;2024-02-04T15:34:14;10.60;99.90
3380;DHT22;1703;51.964;7.642;2024-02-04T15:36:41;10.60;99.90
3380;DHT22;1703;51.964;7.642;2024-02-04T15:39:08;10.60;99.90
3380;DHT22;1703;51.964;7.642;2024-02-04T15:41:37;10.60;99.90
3380;DHT22;1703;51.964;7.642;2024-02-04T15:44:04;10.60;99.90
3380;DHT22;1703;51.964;7.642;2024-02-04T15:46:32;10.60;99.90
3380;DHT22;1703;51.964;7.642;2024-02-04T15:49:02;10.70;99.90
3380;DHT22;1703;51.964;7.642;2024-02-04T15:51:38;10.80;99.90
3380;DHT22;1703;51.964;7.642;2024-02-04T15:54:09;10.90;99.90
3380;DHT22;1703;51.964;7.642;2024-02-04T15:56:55;10.70;99.90
3380;DHT22;1703;51.964;7.642;2024-02-04T15:59:42;10.70;99.90
3380;DHT22;1703;51.964;7.642;2024-02-04T16:02:12;10.60;99.90
3380;DHT22;1703;51.964;7.642;2024-02-04T16:04:44;10.60;99.90
3380;DHT22;1703;51.964;7.642;2024-02-04T16:07:13;10.50;99.90